Time;durP1;ratioP1;P1;durP2;ratioP2;P2;SDS_P1;SDS_P2;PMS_P1;PMS_P2;Temp;Humidity;BMP_temperature;BMP_pressure;BME280_temperature;BME280_humidity;BME280_pressure;Samples;Min_cycle;Max_cycle;Signal;HPM_P1;HPM_P2
2021/12/04 00:00:11;;;;;;;4.30;3.47;;;;;;;-146.48;100.00;60459.00;5325917;28;20031;-72
2021/12/04 00:02:42;;;;;;;3.60;3.15;;;;;;;-146.48;100.00;60459.00;5324563;28;20023;-72
2021/12/04 00:05:13;;;;;;;4.50;3.20;;;;;;;-146.48;100.00;60459.00;5325582;28;20026;-69
2021/12/04 00:07:45;;;;;;;5.45;3.58;;;;;;;-146.48;100.00;60459.00;5325264;28;20028;-70
2021/12/04 00:10:20;;;;;;;4.47;3.67;;;;;;;-146.48;100.00;60459.00;5324866;28;20057;-71
2021/12/04 00:12:52;;;;;;;3.78;3.40;;;;;;;-146.48;100.00;60459.00;5324791;28;20168;-71
2021/12/04 00:15:24;;;;;;;4.63;3.08;;;;;;;-146.48;100.00;60459.00;5324532;28;20527;-71
2021/12/04 00:17:57;;;;;;;5.72;3.15;;;;;;;-146.48;100.00;60459.00;5324220;28;20032;-71
2021/12/04 00:20:30;;;;;;;3.15;2.55;;;;;;;-146.48;100.00;60459.00;5325055;28;20016;-71
2021/12/04 00:23:02;;;;;;;5.88;2.80;;;;;;;-146.48;100.00;60459.00;5323961;28;20019;-70
2021/12/04 00:25:33;;;;;;;3.78;2.47;;;;;;;-146.48;100.00;60459.00;5325105;28;20027;-70
2021/12/04 00:28:06;;;;;;;2.78;2.17;;;;;;;-146.48;100.00;60459.00;5324369;28;20034;-70
2021/12/04 00:30:37;;;;;;;2.92;2.15;;;;;;;-146.48;100.00;60459.00;5323750;28;20031;-71
2021/12/04 00:33:18;;;;;;;3.17;2.40;;;;;;;-146.48;100.00;60459.00;5324498;28;20374;-71
2021/12/04 00:35:58;;;;;;;2.72;2.40;;;;;;;-146.48;100.00;60459.00;5324202;28;20052;-71
2021/12/04 00:49:49;;;;;;;4.00;3.08;;;;;;;-146.48;100.00;60459.00;5324136;28;20043;-71
2021/12/04 00:52:20;;;;;;;3.20;2.50;;;;;;;-146.48;100.00;60459.00;5323490;28;20027;-71
2021/12/04 00:54:51;;;;;;;3.63;3.33;;;;;;;-146.48;100.00;60459.00;5323251;28;20051;-71
2021/12/04 00:57:23;;;;;;;3.35;2.92;;;;;;;-146.48;100.00;60459.00;5323782;28;20039;-71
2021/12/04 00:59:54;;;;;;;3.42;2.80;;;;;;;-146.48;100.00;60459.00;5323611;28;20023;-70
2021/12/04 01:02:26;;;;;;;4.72;3.70;;;;;;;-146.48;100.00;60459.00;5324266;28;20031;-71
2021/12/04 01:04:57;;;;;;;3.58;3.28;;;;;;;-146.48;100.00;60459.00;5322786;28;20068;-72
2021/12/04 01:07:28;;;;;;;4.82;3.80;;;;;;;-146.48;100.00;60459.00;5323727;28;20482;-72
2021/12/04 01:10:00;;;;;;;4.53;4.03;;;;;;;-146.48;100.00;60459.00;5323644;28;20024;-71
2021/12/04 01:12:31;;;;;;;4.00;3.60;;;;;;;-146.48;100.00;60459.00;5323496;28;20016;-71
2021/12/04 01:15:04;;;;;;;3.55;3.25;;;;;;;-146.48;100.00;60459.00;5323185;28;20102;-72
2021/12/04 01:17:35;;;;;;;3.88;3.30;;;;;;;-146.48;100.00;60459.00;5323948;28;20020;-71
2021/12/04 01:20:07;;;;;;;4.25;3.85;;;;;;;-146.48;100.00;60459.00;5322421;28;20059;-71
2021/12/04 01:22:39;;;;;;;5.00;4.07;;;;;;;-146.48;100.00;60459.00;5323516;28;20027;-72
2021/12/04 01:25:10;;;;;;;4.20;3.80;;;;;;;-146.48;100.00;60459.00;5323886;28;20024;-71
2021/12/04 01:27:43;;;;;;;4.15;3.75;;;;;;;-146.48;100.00;60459.00;5322197;28;20514;-72
2021/12/04 01:30:14;;;;;;;3.88;3.53;;;;;;;-146.48;100.00;60459.00;5323644;28;20028;-71
2021/12/04 01:32:45;;;;;;;4.35;3.95;;;;;;;-146.48;100.00;60459.00;5322441;28;20518;-72
2021/12/04 01:35:17;;;;;;;3.58;3.28;;;;;;;-146.48;100.00;60459.00;5323636;28;20107;-70
2021/12/04 01:37:48;;;;;;;4.03;3.45;;;;;;;-146.48;100.00;60459.00;5323207;28;20028;-72
2021/12/04 01:40:20;;;;;;;4.65;4.25;;;;;;;-146.48;100.00;60459.00;5323212;28;20062;-72
2021/12/04 01:42:51;;;;;;;3.45;3.13;;;;;;;-146.48;100.00;60459.00;5322810;28;20016;-71
2021/12/04 01:45:22;;;;;;;3.15;2.90;;;;;;;-146.48;100.00;60459.00;5323819;28;20027;-72
2021/12/04 01:47:59;;;;;;;3.53;3.20;;;;;;;-146.48;100.00;60459.00;5322221;28;20044;-71
2021/12/04 01:50:32;;;;;;;3.78;3.47;;;;;;;-146.48;100.00;60459.00;5323346;28;20031;-71
2021/12/04 01:53:04;;;;;;;4.43;3.50;;;;;;;-146.48;100.00;60459.00;5323077;28;20126;-71
2021/12/04 01:55:36;;;;;;;3.63;3.25;;;;;;;-146.48;100.00;60459.00;5322769;28;20127;-72
2021/12/04 01:58:08;;;;;;;4.45;4.10;;;;;;;-146.48;100.00;60459.00;5323614;28;20028;-71
2021/12/04 02:00:40;;;;;;;4.60;4.20;;;;;;;-146.48;100.00;60459.00;5322439;28;20055;-72
2021/12/04 02:03:16;;;;;;;4.05;3.65;;;;;;;-146.48;100.00;60459.00;5323509;28;20035;-71
2021/12/04 02:05:49;;;;;;;3.53;3.22;;;;;;;-146.48;100.00;60459.00;5322705;28;20035;-72
2021/12/04 02:08:23;;;;;;;4.07;3.78;;;;;;;-146.48;100.00;60459.00;5327310;28;20157;-71
2021/12/04 02:10:57;;;;;;;4.00;3.70;;;;;;;-146.48;100.00;60459.00;5327218;28;20386;-71
2021/12/04 02:13:29;;;;;;;4.63;3.75;;;;;;;-146.48;100.00;60459.00;5327574;28;20078;-70
2021/12/04 02:16:03;;;;;;;4.53;4.13;;;;;;;-146.48;100.00;60459.00;5326237;28;20457;-71
2021/12/04 02:18:34;;;;;;;4.30;3.90;;;;;;;-146.48;100.00;60459.00;5327131;28;20122;-71
2021/12/04 02:21:06;;;;;;;5.25;4.25;;;;;;;-146.48;100.00;60459.00;5326794;28;20116;-71
2021/12/04 02:23:37;;;;;;;4.60;4.05;;;;;;;-146.48;100.00;60459.00;5326061;28;20032;-72
2021/12/04 02:26:09;;;;;;;5.20;4.78;;;;;;;-146.48;100.00;60459.00;5327202;28;20062;-71
2021/12/04 02:28:45;;;;;;;5.07;4.55;;;;;;;-146.48;100.00;60459.00;5326596;28;20078;-71
2021/12/04 02:31:17;;;;;;;7.55;4.72;;;;;;;-146.48;100.00;60459.00;5327142;28;20031;-71
2021/12/04 02:33:48;;;;;;;5.72;4.70;;;;;;;-146.48;100.00;60459.00;5326758;28;20408;-71
2021/12/04 02:36:20;;;;;;;5.20;4.70;;;;;;;-146.48;100.00;60459.00;5326572;28;20051;-71
2021/12/04 02:38:52;;;;;;;5.68;5.18;;;;;;;-146.48;100.00;60459.00;5326301;28;20043;-71
2021/12/04 02:41:24;;;;;;;7.35;5.13;;;;;;;-146.48;100.00;60459.00;5326907;28;20031;-71
2021/12/04 02:43:55;;;;;;;7.10;5.28;;;;;;;-146.48;100.00;60459.00;5325973;28;20472;-71
2021/12/04 02:46:33;;;;;;;7.38;4.63;;;;;;;-146.48;100.00;60459.00;5326463;28;20090;-71
2021/12/04 02:49:06;;;;;;;6.90;4.50;;;;;;;-146.48;100.00;60459.00;5326208;28;20466;-71
2021/12/04 02:51:37;;;;;;;5.38;4.65;;;;;;;-146.48;100.00;60459.00;5325324;28;20027;-72
2021/12/04 02:54:11;;;;;;;5.95;4.35;;;;;;;-146.48;100.00;60459.00;5326975;28;20083;-71
2021/12/04 02:56:44;;;;;;;5.63;4.53;;;;;;;-146.48;100.00;60459.00;5326210;28;20420;-71
2021/12/04 02:59:17;;;;;;;6.25;4.82;;;;;;;-146.48;100.00;60459.00;5325944;28;20107;-71
2021/12/04 03:01:52;;;;;;;5.05;4.63;;;;;;;-146.48;100.00;60459.00;5325939;28;20019;-71
2021/12/04 03:04:25;;;;;;;5.63;5.13;;;;;;;-146.48;100.00;60459.00;5325858;28;20048;-71
2021/12/04 03:06:56;;;;;;;5.97;5.22;;;;;;;-146.48;100.00;60459.00;5325738;28;20440;-72
2021/12/04 03:09:28;;;;;;;5.18;4.65;;;;;;;-146.48;100.00;60459.00;5326480;28;20059;-71
2021/12/04 03:12:06;;;;;;;8.43;5.20;;;;;;;-146.48;100.00;60459.00;5325039;28;20106;-71
2021/12/04 03:14:38;;;;;;;5.82;5.03;;;;;;;-146.48;100.00;60459.00;5325398;28;20024;-71
2021/12/04 03:17:10;;;;;;;6.75;4.18;;;;;;;-146.48;100.00;60459.00;5325883;28;20028;-71
2021/12/04 03:19:41;;;;;;;5.10;4.43;;;;;;;-146.48;100.00;60459.00;5324924;28;20042;-71
2021/12/04 03:22:14;;;;;;;4.35;3.95;;;;;;;-146.48;100.00;60459.00;5326306;28;20065;-71
2021/12/04 03:24:46;;;;;;;5.25;4.25;;;;;;;-146.48;100.00;60459.00;5325772;28;20022;-71
2021/12/04 03:27:19;;;;;;;4.40;4.00;;;;;;;-146.48;100.00;60459.00;5325113;28;20043;-71
2021/12/04 03:29:59;;;;;;;4.75;4.35;;;;;;;-146.48;100.00;60459.00;5325544;28;20047;-71
2021/12/04 03:41:17;;;;;;;2.53;2.33;;;;;;;-146.48;100.00;60459.00;5323375;28;20035;-71
2021/12/04 03:43:48;;;;;;;3.10;2.80;;;;;;;-146.48;100.00;60459.00;5324895;28;20023;-71
2021/12/04 03:46:19;;;;;;;3.08;2.78;;;;;;;-146.48;100.00;60459.00;5324927;28;20506;-71
2021/12/04 03:48:51;;;;;;;3.28;2.65;;;;;;;-146.48;100.00;60459.00;5324380;28;20032;-71
2021/12/04 03:51:22;;;;;;;2.65;2.42;;;;;;;-146.48;100.00;60459.00;5325475;28;20336;-71
2021/12/04 03:53:55;;;;;;;3.22;2.17;;;;;;;-146.48;100.00;60459.00;5324290;28;20019;-71
2021/12/04 03:56:28;;;;;;;2.28;1.85;;;;;;;-146.48;100.00;60459.00;5325212;28;20035;-72
2021/12/04 03:58:59;;;;;;;2.60;2.08;;;;;;;-146.48;100.00;60459.00;5324979;28;20020;-71
2021/12/04 04:01:31;;;;;;;2.00;1.70;;;;;;;-146.48;100.00;60459.00;5324510;28;20031;-71
2021/12/04 04:04:02;;;;;;;2.20;1.65;;;;;;;-146.48;100.00;60459.00;5324545;28;20112;-71
2021/12/04 04:06:34;;;;;;;2.10;1.75;;;;;;;-146.48;100.00;60459.00;5325022;28;20471;-71
2021/12/04 04:09:05;;;;;;;1.98;1.50;;;;;;;-146.48;100.00;60459.00;5324325;28;20431;-71
2021/12/04 04:11:36;;;;;;;2.00;1.55;;;;;;;-146.48;100.00;60459.00;5324948;28;20023;-71
2021/12/04 04:14:08;;;;;;;2.20;1.45;;;;;;;-146.48;100.00;60459.00;5324978;28;20379;-71
2021/12/04 04:16:41;;;;;;;1.70;1.35;;;;;;;-146.48;100.00;60459.00;5323539;28;20426;-71
2021/12/04 04:19:12;;;;;;;2.53;1.40;;;;;;;-146.48;100.00;60459.00;5324961;28;20464;-71
2021/12/04 04:21:43;;;;;;;1.95;1.50;;;;;;;-146.48;100.00;60459.00;5323831;28;20031;-71
2021/12/04 04:24:17;;;;;;;2.30;1.50;;;;;;;-146.48;100.00;60459.00;5324809;28;20028;-71
2021/12/04 04:26:48;;;;;;;1.95;1.08;;;;;;;-146.48;100.00;60459.00;5324271;28;20056;-71
2021/12/04 04:29:20;;;;;;;3.33;1.20;;;;;;;-146.48;100.00;60459.00;5323336;28;20398;-71
2021/12/04 04:31:54;;;;;;;2.33;1.30;;;;;;;-146.48;100.00;60459.00;5323714;28;20396;-71
2021/12/04 04:34:33;;;;;;;2.45;1.55;;;;;;;-146.48;100.00;60459.00;5324642;28;20076;-71
2021/12/04 04:59:40;;;;;;;1.42;0.88;;;;;;;-146.48;100.00;60459.00;5324416;28;20035;-71
2021/12/04 05:10:15;;;;;;;2.38;0.95;;;;;;;-146.48;100.00;60459.00;5324266;28;20020;-70
2021/12/04 05:11:16;;;;;;;1.30;0.80;;;;;;;-146.48;100.00;60459.00;5216699;28;20198;-71
2021/12/04 05:13:47;;;;;;;1.58;1.05;;;;;;;-146.48;100.00;60459.00;5311488;28;20051;-71
2021/12/04 05:16:21;;;;;;;1.60;0.73;;;;;;;-146.48;100.00;60459.00;5324132;28;20092;-71
2021/12/04 05:18:56;;;;;;;1.83;0.90;;;;;;;-146.48;100.00;60459.00;5322469;28;20024;-71
2021/12/04 05:21:27;;;;;;;2.60;0.90;;;;;;;-146.48;100.00;60459.00;5323763;28;20023;-71
2021/12/04 05:23:59;;;;;;;1.38;0.80;;;;;;;-146.48;100.00;60459.00;5323262;28;20473;-71
2021/12/04 05:26:30;;;;;;;1.85;0.70;;;;;;;-146.48;100.00;60459.00;5322963;28;20535;-71
2021/12/04 05:29:01;;;;;;;2.55;0.82;;;;;;;-146.48;100.00;60459.00;5323253;28;20383;-71
2021/12/04 05:31:33;;;;;;;1.27;0.70;;;;;;;-146.48;100.00;60459.00;5323854;28;20030;-71
2021/12/04 05:34:04;;;;;;;1.42;0.80;;;;;;;-146.48;100.00;60459.00;5322235;28;20111;-71
2021/12/04 05:36:35;;;;;;;1.40;0.80;;;;;;;-146.48;100.00;60459.00;5323626;28;20106;-71
2021/12/04 05:39:07;;;;;;;1.90;0.80;;;;;;;-146.48;100.00;60459.00;5322783;28;20046;-72
2021/12/04 05:41:38;;;;;;;1.92;0.77;;;;;;;-146.48;100.00;60459.00;5326212;28;20024;-70
2021/12/04 05:44:12;;;;;;;4.20;0.80;;;;;;;-146.48;100.00;60459.00;5328228;28;20081;-71
2021/12/04 05:46:45;;;;;;;1.92;0.70;;;;;;;-146.48;100.00;60459.00;5326603;28;20039;-71
2021/12/04 05:49:21;;;;;;;1.17;0.70;;;;;;;-146.48;100.00;60459.00;5328252;28;20103;-71
2021/12/04 05:57:02;;;;;;;1.55;0.90;;;;;;;-146.48;100.00;60459.00;5327420;28;20035;-71
2021/12/04 05:59:33;;;;;;;1.40;0.90;;;;;;;-146.48;100.00;60459.00;5328167;28;20390;-71
2021/12/04 06:02:04;;;;;;;1.83;1.00;;;;;;;-146.48;100.00;60459.00;5326604;28;20050;-71
2021/12/04 06:04:36;;;;;;;2.88;1.00;;;;;;;-146.48;100.00;60459.00;5327699;28;20042;-71
2021/12/04 06:07:07;;;;;;;1.65;0.90;;;;;;;-146.48;100.00;60459.00;5326652;28;20393;-71
2021/12/04 06:09:38;;;;;;;1.75;0.70;;;;;;;-146.48;100.00;60459.00;5326748;28;20386;-72
2021/12/04 06:12:10;;;;;;;1.40;1.05;;;;;;;-146.48;100.00;60459.00;5327483;28;20024;-71
2021/12/04 06:14:45;;;;;;;2.35;1.00;;;;;;;-146.48;100.00;60459.00;5326240;28;20377;-71
2021/12/04 06:17:18;;;;;;;1.40;0.90;;;;;;;-146.48;100.00;60459.00;5327618;28;20390;-71
2021/12/04 06:22:41;;;;;;;2.00;0.90;;;;;;;-146.48;100.00;60459.00;5326180;28;20028;-71
2021/12/04 06:25:19;;;;;;;2.55;1.00;;;;;;;-146.48;100.00;60459.00;5327379;28;20027;-71
2021/12/04 06:27:51;;;;;;;4.47;0.90;;;;;;;-146.48;100.00;60459.00;5326669;28;20038;-71
2021/12/04 06:30:25;;;;;;;1.45;1.02;;;;;;;-146.48;100.00;60459.00;5326406;28;20031;-70
2021/12/04 06:32:56;;;;;;;2.03;1.15;;;;;;;-146.48;100.00;60459.00;5326548;28;20107;-71
2021/12/04 06:35:27;;;;;;;2.15;1.15;;;;;;;-146.48;100.00;60459.00;5326578;28;20534;-71
2021/12/04 06:38:00;;;;;;;2.38;1.15;;;;;;;-146.48;100.00;60459.00;5326218;28;20030;-71
2021/12/04 06:40:31;;;;;;;1.88;1.00;;;;;;;-146.48;100.00;60459.00;5327007;28;20401;-70
2021/12/04 06:43:04;;;;;;;3.35;1.00;;;;;;;-146.48;100.00;60459.00;5325574;28;20031;-71
2021/12/04 06:45:38;;;;;;;2.47;0.93;;;;;;;-146.48;100.00;60459.00;5326937;28;20099;-71
2021/12/04 06:48:13;;;;;;;1.70;1.00;;;;;;;-146.48;100.00;60459.00;5326955;28;20156;-71
2021/12/04 06:50:49;;;;;;;1.60;1.08;;;;;;;-146.48;100.00;60459.00;5325568;28;20046;-71
2021/12/04 06:53:31;;;;;;;2.30;1.00;;;;;;;-146.48;100.00;60459.00;5325875;28;20031;-71
2021/12/04 06:56:06;;;;;;;1.40;0.93;;;;;;;-146.48;100.00;60459.00;5325847;28;20055;-71
2021/12/04 06:58:38;;;;;;;1.60;0.80;;;;;;;-146.48;100.00;60459.00;5326113;28;20081;-71
2021/12/04 07:01:12;;;;;;;1.83;1.00;;;;;;;-146.48;100.00;60459.00;5326804;28;20107;-71
2021/12/04 07:03:44;;;;;;;1.85;1.08;;;;;;;-146.48;100.00;60459.00;5325234;28;20080;-71
2021/12/04 07:06:15;;;;;;;2.40;1.23;;;;;;;-146.48;100.00;60459.00;5326428;28;20032;-71
2021/12/04 07:08:46;;;;;;;2.90;1.33;;;;;;;-146.48;100.00;60459.00;5325945;28;20036;-71
2021/12/04 07:11:18;;;;;;;2.38;1.17;;;;;;;-146.48;100.00;60459.00;5325570;28;20036;-71
2021/12/04 07:13:50;;;;;;;3.28;1.42;;;;;;;-146.48;100.00;60459.00;5325752;28;20420;-71
2021/12/04 07:16:22;;;;;;;2.25;1.45;;;;;;;-146.48;100.00;60459.00;5326123;28;20103;-71
2021/12/04 07:18:53;;;;;;;3.28;1.40;;;;;;;-146.48;100.00;60459.00;5324954;28;20020;-70
2021/12/04 07:21:25;;;;;;;2.75;1.20;;;;;;;-146.48;100.00;60459.00;5326299;28;20104;-71
2021/12/04 07:23:56;;;;;;;2.13;1.27;;;;;;;-146.48;100.00;60459.00;5325645;28;20032;-71
2021/12/04 07:26:27;;;;;;;2.10;1.00;;;;;;;-146.48;100.00;60459.00;5325183;28;20059;-72
2021/12/04 07:28:58;;;;;;;4.50;1.60;;;;;;;-146.48;100.00;60459.00;5325333;28;20106;-71
2021/12/04 07:31:30;;;;;;;2.38;1.40;;;;;;;-146.48;100.00;60459.00;5325454;28;20039;-71
2021/12/04 07:34:02;;;;;;;2.08;1.15;;;;;;;-146.48;100.00;60459.00;5325375;28;20424;-72
2021/12/04 07:36:33;;;;;;;3.47;1.27;;;;;;;-146.48;100.00;60459.00;5325875;28;20100;-72
2021/12/04 07:39:05;;;;;;;2.78;1.05;;;;;;;-146.48;100.00;60459.00;5324450;28;20027;-71
2021/12/04 07:41:39;;;;;;;3.13;1.20;;;;;;;-146.48;100.00;60459.00;5325858;28;20047;-71
2021/12/04 07:44:11;;;;;;;2.50;1.70;;;;;;;-146.48;100.00;60459.00;5326114;28;20023;-71
2021/12/04 07:46:42;;;;;;;2.47;1.63;;;;;;;-146.48;100.00;60459.00;5324064;28;20058;-71
2021/12/04 07:49:13;;;;;;;3.25;1.73;;;;;;;-146.48;100.00;60459.00;5325600;28;20024;-71
2021/12/04 07:51:44;;;;;;;2.58;1.35;;;;;;;-146.48;100.00;60459.00;5324731;28;20073;-71
2021/12/04 07:54:17;;;;;;;4.82;1.38;;;;;;;-146.48;100.00;60459.00;5325099;28;20055;-71
2021/12/04 07:56:48;;;;;;;2.08;1.40;;;;;;;-146.48;100.00;60459.00;5325109;28;20059;-72
2021/12/04 07:59:19;;;;;;;3.95;2.28;;;;;;;-146.48;100.00;60459.00;5324866;28;20051;-72
2021/12/04 08:01:51;;;;;;;2.00;1.27;;;;;;;-146.48;100.00;60459.00;5324553;28;20487;-71
2021/12/04 08:04:23;;;;;;;3.17;1.77;;;;;;;-146.48;100.00;60459.00;5325280;28;20447;-71
2021/12/04 08:06:54;;;;;;;2.58;1.42;;;;;;;-146.48;100.00;60459.00;5323904;28;20053;-71
2021/12/04 08:09:25;;;;;;;5.18;1.60;;;;;;;-146.48;100.00;60459.00;5324911;28;20405;-72
2021/12/04 08:11:57;;;;;;;2.78;2.20;;;;;;;-146.48;100.00;60459.00;5324501;28;20043;-71
2021/12/04 08:14:28;;;;;;;3.75;1.10;;;;;;;-146.48;100.00;60459.00;5324190;28;20049;-71
2021/12/04 08:16:59;;;;;;;2.75;2.00;;;;;;;-146.48;100.00;60459.00;5324590;28;20020;-71
2021/12/04 08:19:32;;;;;;;2.92;1.60;;;;;;;-146.48;100.00;60459.00;5325162;28;20100;-72
2021/12/04 08:22:03;;;;;;;2.65;1.55;;;;;;;-146.48;100.00;60459.00;5323425;28;20110;-72
2021/12/04 08:24:34;;;;;;;4.18;1.98;;;;;;;-146.48;100.00;60459.00;5324927;28;20038;-71
2021/12/04 08:27:08;;;;;;;2.83;1.65;;;;;;;-146.48;100.00;60459.00;5324117;28;20027;-72
2021/12/04 08:29:39;;;;;;;2.60;1.70;;;;;;;-146.48;100.00;60459.00;5323476;28;20058;-72
2021/12/04 08:32:11;;;;;;;3.75;1.60;;;;;;;-146.48;100.00;60459.00;5324852;28;20094;-72
2021/12/04 08:34:42;;;;;;;3.05;2.00;;;;;;;-146.48;100.00;60459.00;5323628;28;20058;-72
2021/12/04 08:37:13;;;;;;;2.17;1.40;;;;;;;-146.48;100.00;60459.00;5324408;28;20027;-71
2021/12/04 08:39:45;;;;;;;2.78;1.90;;;;;;;-146.48;100.00;60459.00;5323773;28;20042;-71
2021/12/04 08:42:19;;;;;;;2.60;1.67;;;;;;;-146.48;100.00;60459.00;5323847;28;20054;-71
2021/12/04 08:44:51;;;;;;;2.35;1.50;;;;;;;-146.48;100.00;60459.00;5323898;28;20030;-71
2021/12/04 08:47:23;;;;;;;2.70;1.88;;;;;;;-146.48;100.00;60459.00;5324253;28;20052;-71
2021/12/04 08:49:54;;;;;;;3.20;1.75;;;;;;;-146.48;100.00;60459.00;5322833;28;20088;-71
2021/12/04 08:52:26;;;;;;;2.42;1.48;;;;;;;-146.48;100.00;60459.00;5324450;28;20028;-71
2021/12/04 08:54:57;;;;;;;2.40;1.80;;;;;;;-146.48;100.00;60459.00;5323812;28;20035;-71
2021/12/04 08:57:28;;;;;;;2.97;2.00;;;;;;;-146.48;100.00;60459.00;5323391;28;20032;-71
2021/12/04 09:00:00;;;;;;;3.97;1.70;;;;;;;-146.48;100.00;60459.00;5323681;28;20359;-71
2021/12/04 09:02:32;;;;;;;3.60;1.67;;;;;;;-146.48;100.00;60459.00;5324068;28;20028;-72
2021/12/04 09:05:06;;;;;;;3.25;1.25;;;;;;;-146.48;100.00;60459.00;5322899;28;20459;-72
2021/12/04 09:07:39;;;;;;;2.95;1.63;;;;;;;-146.48;100.00;60459.00;5323512;28;20119;-72
2021/12/04 09:10:11;;;;;;;2.40;1.65;;;;;;;-146.48;100.00;60459.00;5323441;28;20024;-72
2021/12/04 09:12:44;;;;;;;3.38;1.73;;;;;;;-146.48;100.00;60459.00;5323376;28;20421;-73
2021/12/04 09:15:20;;;;;;;3.13;2.40;;;;;;;-146.48;100.00;60459.00;5323633;28;20378;-72
2021/12/04 09:17:52;;;;;;;2.97;1.70;;;;;;;-146.48;100.00;60459.00;5322347;28;20029;-72
2021/12/04 09:20:23;;;;;;;2.33;1.85;;;;;;;-146.48;100.00;60459.00;5324070;28;20487;-72
2021/12/04 09:22:54;;;;;;;2.95;1.83;;;;;;;-146.48;100.00;60459.00;5323424;28;20020;-72
2021/12/04 09:25:27;;;;;;;2.88;2.08;;;;;;;-146.48;100.00;60459.00;5322960;28;20084;-72
2021/12/04 09:28:08;;;;;;;4.53;2.00;;;;;;;-146.48;100.00;60459.00;5322948;28;20048;-72
2021/12/04 10:02:03;;;;;;;4.15;3.13;;;;;;;-146.48;100.00;60459.00;5322855;28;20036;-72
2021/12/04 10:13:31;;;;;;;7.68;3.55;;;;;;;-146.48;100.00;60459.00;5297494;28;20035;-72
2021/12/04 10:35:07;;;;;;;6.80;3.78;;;;;;;-146.48;100.00;60459.00;5324154;28;20035;-73
2021/12/04 10:38:01;;;;;;;5.50;3.30;;;;;;;-146.48;100.00;60459.00;5325454;28;20047;-71
2021/12/04 10:40:39;;;;;;;7.68;4.63;;;;;;;-146.48;100.00;60459.00;5326019;28;20050;-71
2021/12/04 10:43:15;;;;;;;4.88;3.67;;;;;;;-146.48;100.00;60459.00;5324821;28;20031;-72
2021/12/04 10:45:52;;;;;;;6.75;3.63;;;;;;;-146.48;100.00;60459.00;5325314;28;20094;-72
2021/12/04 10:48:28;;;;;;;8.98;5.03;;;;;;;-146.48;100.00;60459.00;5324271;28;20039;-72
2021/12/04 10:51:49;;;;;;;4.57;4.13;;;;;;;-146.48;100.00;60459.00;5325040;28;20024;-72
2021/12/04 10:54:20;;;;;;;4.72;3.15;;;;;;;-146.48;100.00;60459.00;5319206;28;20412;-72
2021/12/04 10:57:17;;;;;;;5.75;3.50;;;;;;;-146.48;100.00;60459.00;5324075;28;20026;-71
2021/12/04 10:59:59;;;;;;;7.97;3.78;;;;;;;-146.48;100.00;60459.00;5324731;28;20027;-72
2021/12/04 11:02:41;;;;;;;4.35;3.63;;;;;;;-146.48;100.00;60459.00;5306154;28;20542;-72
2021/12/04 11:05:51;;;;;;;5.30;3.55;;;;;;;-146.48;100.00;60459.00;5325535;28;20028;-72
2021/12/04 11:22:32;;;;;;;3.97;2.97;;;;;;;-146.48;100.00;60459.00;5325016;28;20032;-72
2021/12/04 11:36:26;;;;;;;4.72;3.13;;;;;;;-146.48;100.00;60459.00;5325170;28;20498;-72
2021/12/04 11:39:22;;;;;;;3.67;2.20;;;;;;;-146.48;100.00;60459.00;5322974;28;20046;-72
2021/12/04 11:42:08;;;;;;;4.15;2.83;;;;;;;-146.48;100.00;60459.00;5344241;27;20034;-72
2021/12/04 11:44:56;;;;;;;2.85;2.42;;;;;;;-146.48;100.00;60459.00;5345850;27;20027;-71
2021/12/04 11:47:36;;;;;;;4.38;2.70;;;;;;;-146.48;100.00;60459.00;5347032;27;20134;-73
2021/12/04 11:50:22;;;;;;;5.45;2.63;;;;;;;-146.48;100.00;60459.00;5346913;27;20502;-72
2021/12/04 11:52:56;;;;;;;3.40;2.45;;;;;;;-146.48;100.00;60459.00;5345647;27;20367;-72
2021/12/04 11:55:32;;;;;;;4.30;3.17;;;;;;;-146.48;100.00;60459.00;5345027;27;20019;-72
2021/12/04 11:58:14;;;;;;;5.07;3.20;;;;;;;-146.48;100.00;60459.00;5345366;27;20527;-72
2021/12/04 12:00:47;;;;;;;4.25;3.22;;;;;;;-146.48;100.00;60459.00;5344666;27;20118;-72
2021/12/04 12:03:21;;;;;;;4.50;3.38;;;;;;;-146.48;100.00;60459.00;5346177;27;20042;-73
2021/12/04 12:06:00;;;;;;;4.28;3.53;;;;;;;-146.48;100.00;60459.00;5344371;27;20027;-72
2021/12/04 12:08:38;;;;;;;9.07;3.65;;;;;;;-146.48;100.00;60459.00;5346185;27;20462;-73
2021/12/04 12:11:19;;;;;;;4.82;3.78;;;;;;;-146.48;100.00;60459.00;5346618;27;20058;-71
2021/12/04 12:13:59;;;;;;;3.80;3.47;;;;;;;-146.48;100.00;60459.00;5345124;27;20037;-72
2021/12/04 12:16:39;;;;;;;3.42;3.13;;;;;;;-146.48;100.00;60459.00;5346891;27;20062;-72
2021/12/04 12:19:20;;;;;;;;;;;;;;;-146.48;100.00;60459.00;5347130;27;20023;-72
2021/12/04 12:22:01;;;;;;;4.30;3.47;;;;;;;-146.48;100.00;60459.00;5344965;27;19994;-72
2021/12/04 12:36:14;;;;;;;5.10;3.95;;;;;;;-146.48;100.00;60459.00;5344823;27;20035;-71
2021/12/04 12:38:53;;;;;;;5.78;3.53;;;;;;;-146.48;100.00;60459.00;5345469;27;20023;-72
2021/12/04 12:41:37;;;;;;;;;;;;;;;-146.48;100.00;60459.00;5345613;27;20083;-71
2021/12/04 12:44:15;;;;;;;6.15;3.97;;;;;;;-146.48;100.00;60459.00;5346111;27;20281;-71
2021/12/04 12:46:53;;;;;;;6.80;4.38;;;;;;;-146.48;100.00;60459.00;5344915;27;20051;-72
2021/12/04 12:49:41;;;;;;;11.95;4.47;;;;;;;-146.48;100.00;60459.00;5344927;27;20023;-72
2021/12/04 12:52:20;;;;;;;6.72;5.60;;;;;;;-146.48;100.00;60459.00;5345909;27;20084;-72
2021/12/04 12:54:57;;;;;;;8.60;7.50;;;;;;;-146.48;100.00;60459.00;5344393;27;20026;-71
2021/12/04 12:57:31;;;;;;;8.65;7.57;;;;;;;-146.48;100.00;60459.00;5345702;27;20449;-71
2021/12/04 13:11:43;;;;;;;12.85;10.68;;;;;;;-146.48;100.00;60459.00;5345519;27;20043;-70
2021/12/04 13:14:36;;;;;;;13.85;11.73;;;;;;;-146.48;100.00;60459.00;5345435;27;20071;-71
2021/12/04 13:17:10;;;;;;;11.50;9.98;;;;;;;-146.48;100.00;60459.00;5344515;27;20505;-71
2021/12/04 13:19:46;;;;;;;12.73;10.80;;;;;;;-146.48;100.00;60459.00;5344634;27;20062;-71
2021/12/04 13:22:21;;;;;;;11.52;9.98;;;;;;;-146.48;100.00;60459.00;5345668;27;20023;-71
2021/12/04 13:24:59;;;;;;;11.05;9.93;;;;;;;-146.48;100.00;60459.00;5344172;27;20442;-70
2021/12/04 13:30:16;;;;;;;11.88;9.82;;;;;;;-146.48;100.00;60459.00;5344111;27;20114;-70
2021/12/04 13:32:47;;;;;;;10.85;9.10;;;;;;;-146.48;100.00;60459.00;5323139;28;20055;-70
2021/12/04 13:35:21;;;;;;;9.95;8.73;;;;;;;-146.48;100.00;60459.00;5323976;28;20486;-71
2021/12/04 13:38:00;;;;;;;9.43;7.93;;;;;;;-146.48;100.00;60459.00;5322379;28;20510;-70
2021/12/04 13:40:31;;;;;;;7.15;6.47;;;;;;;-146.48;100.00;60459.00;5323951;28;20024;-70
2021/12/04 13:43:08;;;;;;;8.02;7.22;;;;;;;-146.48;100.00;60459.00;5320914;28;20027;-70
2021/12/04 13:45:41;;;;;;;8.85;7.55;;;;;;;-146.48;100.00;60459.00;5322246;28;20019;-71
2021/12/04 13:48:12;;;;;;;9.20;7.22;;;;;;;-146.48;100.00;60459.00;5323531;28;20083;-71
2021/12/04 13:50:44;;;;;;;8.20;7.32;;;;;;;-146.48;100.00;60459.00;5323273;28;20090;-70
2021/12/04 13:53:20;;;;;;;7.55;6.82;;;;;;;-146.48;100.00;60459.00;5323290;28;20039;-71
2021/12/04 13:56:01;;;;;;;8.65;7.78;;;;;;;-146.48;100.00;60459.00;5323244;28;20374;-72
2021/12/04 13:58:33;;;;;;;10.25;7.50;;;;;;;-146.48;100.00;60459.00;5322930;28;20024;-70
2021/12/04 14:01:05;;;;;;;8.13;7.30;;;;;;;-146.48;100.00;60459.00;5323780;28;20457;-71
2021/12/04 14:03:38;;;;;;;13.30;8.20;;;;;;;-146.48;100.00;60459.00;5327832;28;20024;-70
2021/12/04 14:06:11;;;;;;;10.38;8.52;;;;;;;-146.48;100.00;60459.00;5327219;28;20019;-71
2021/12/04 14:08:54;;;;;;;9.40;8.38;;;;;;;-146.48;100.00;60459.00;5327293;28;20467;-71
2021/12/04 14:11:55;;;;;;;10.60;9.02;;;;;;;-146.48;100.00;60459.00;5328044;28;20081;-71
2021/12/04 14:14:28;;;;;;;9.70;8.27;;;;;;;-146.48;100.00;60459.00;5313426;28;20039;-70
2021/12/04 14:17:08;;;;;;;10.38;8.45;;;;;;;-146.48;100.00;60459.00;5327208;28;20032;-71
2021/12/04 14:19:41;;;;;;;10.48;9.32;;;;;;;-146.48;100.00;60459.00;5326502;28;20030;-71
2021/12/04 14:22:16;;;;;;;10.13;8.27;;;;;;;-146.48;100.00;60459.00;5327841;28;20451;-71
2021/12/04 14:24:56;;;;;;;8.18;6.97;;;;;;;-146.48;100.00;60459.00;5327029;28;20024;-71
2021/12/04 14:27:30;;;;;;;9.85;7.80;;;;;;;-146.48;100.00;60459.00;5326667;28;20035;-71